MLA weather

Malta International Airport
Valletta, Luqa, Malta

Public forecast

Using degrees Celsius for public forecast. Weather courtesy of forecast.io.

METAR (pilot weather report)

Retrieved 2019/05/20 14:45 UTC (1 hour ago):

LMML 201445Z 35009KT 9999 FEW030 22/11 Q1014 NOSIG

TAF (pilot weather forecast)

Retrieved 2019/05/20 12:44 UTC (3 hours ago):

TAF LMML 201100Z 2012/2112 34008KT CAVOK